Time;durP1;ratioP1;P1;durP2;ratioP2;P2;SDS_P1;SDS_P2;PMS_P1;PMS_P2;Temp;Humidity;BMP_temperature;BMP_pressure;BME280_temperature;BME280_humidity;BME280_pressure;Samples;Min_cycle;Max_cycle;Signal;HPM_P1;HPM_P2
2020/12/23 00:00:34;;;;;;;67.62;61.37;;;;;;;15.34;43.77;100628.44;4484416;31;33124;-90
2020/12/23 00:03:07;;;;;;;66.07;60.12;;;;;;;15.45;43.56;100628.91;4473125;31;34115;-90
2020/12/23 00:05:35;;;;;;;65.75;59.80;;;;;;;15.11;44.51;100631.91;4471372;31;33442;-90
2020/12/23 00:08:03;;;;;;;65.70;59.17;;;;;;;15.29;44.13;100635.62;4458699;31;32920;-90
2020/12/23 00:10:30;;;;;;;64.82;59.13;;;;;;;14.92;44.98;100629.06;4458459;31;32979;-89
2020/12/23 00:12:58;;;;;;;66.37;59.97;;;;;;;15.29;43.98;100633.00;4458273;31;33853;-90
2020/12/23 00:15:25;;;;;;;67.40;61.17;;;;;;;15.42;43.53;100628.16;4459206;31;33167;-90
2020/12/23 00:17:54;;;;;;;65.62;59.53;;;;;;;15.35;43.60;100620.50;4462046;31;32869;-90
2020/12/23 00:20:21;;;;;;;69.40;63.25;;;;;;;15.18;44.13;100617.63;4474205;31;32788;-90
2020/12/23 00:22:48;;;;;;;68.80;62.38;;;;;;;15.43;43.69;100608.88;4473611;31;32864;-91
2020/12/23 00:25:16;;;;;;;68.00;61.67;;;;;;;15.49;43.40;100612.12;4459569;31;33416;-90
2020/12/23 00:27:44;;;;;;;68.20;61.30;;;;;;;15.11;44.26;100611.75;4458207;31;32828;-90
2020/12/23 00:30:13;;;;;;;66.30;59.78;;;;;;;15.16;44.24;100609.81;4471033;31;32826;-90
2020/12/23 00:32:41;;;;;;;70.87;64.00;;;;;;;15.45;43.54;100601.78;4470667;31;34654;-89
2020/12/23 00:35:08;;;;;;;69.47;62.47;;;;;;;15.46;43.57;100601.75;4483333;31;34693;-90
2020/12/23 00:37:36;;;;;;;72.10;65.05;;;;;;;14.89;44.67;100595.94;4457655;31;32987;-89
2020/12/23 00:40:05;;;;;;;66.53;60.00;;;;;;;14.78;45.31;100590.19;4483615;31;33702;-89
2020/12/23 00:42:32;;;;;;;69.78;62.38;;;;;;;15.18;44.41;100588.75;4471018;31;34794;-89
2020/12/23 00:44:59;;;;;;;65.00;58.95;;;;;;;14.97;44.95;100590.38;4484044;31;33812;-90
2020/12/23 00:47:28;;;;;;;69.12;61.72;;;;;;;15.26;44.39;100585.84;4459153;31;32844;-89
2020/12/23 00:49:55;;;;;;;80.87;60.55;;;;;;;15.25;44.38;100589.37;4472613;31;33219;-90
2020/12/23 00:52:23;;;;;;;67.55;60.78;;;;;;;14.20;47.30;100588.59;4459904;31;33208;-91
2020/12/23 00:54:51;;;;;;;67.68;61.08;;;;;;;14.48;46.38;100587.69;4459756;31;33022;-91
2020/12/23 00:57:20;;;;;;;66.97;60.22;;;;;;;14.35;46.87;100598.56;4473504;31;33460;-90
2020/12/23 00:59:48;;;;;;;65.80;59.33;;;;;;;15.25;44.74;100599.91;4485712;31;33010;-90
2020/12/23 01:02:16;;;;;;;67.72;61.00;;;;;;;15.38;44.32;100602.94;4472597;31;34249;-90
2020/12/23 01:04:43;;;;;;;66.25;60.22;;;;;;;13.94;47.53;100606.00;4472530;31;32959;-90
2020/12/23 01:07:11;;;;;;;66.68;60.05;;;;;;;13.11;49.81;100590.06;4459853;31;32752;-91
2020/12/23 01:09:39;;;;;;;67.62;61.35;;;;;;;13.40;49.34;100596.28;4473122;31;33439;-91
2020/12/23 01:12:07;;;;;;;66.12;59.83;;;;;;;14.44;46.67;100600.03;4459686;31;32748;-90
2020/12/23 01:14:34;;;;;;;66.35;60.25;;;;;;;13.62;48.59;100599.13;4472511;31;34802;-91
2020/12/23 01:17:02;;;;;;;66.22;60.28;;;;;;;13.50;48.90;100588.09;4459601;31;33229;-90
2020/12/23 01:19:30;;;;;;;67.05;61.08;;;;;;;12.33;52.25;100589.47;4476583;31;32993;-90
2020/12/23 01:21:58;;;;;;;65.22;59.22;;;;;;;13.13;50.05;100589.13;4478040;31;32880;-90
2020/12/23 01:24:26;;;;;;;65.37;59.60;;;;;;;13.00;50.40;100586.00;4492002;31;34889;-89
2020/12/23 01:26:53;;;;;;;65.70;59.80;;;;;;;13.67;48.55;100592.84;4475526;31;33764;-90
2020/12/23 01:29:20;;;;;;;65.37;59.78;;;;;;;14.48;46.36;100588.53;4474746;31;33333;-90
2020/12/23 01:31:48;;;;;;;65.03;59.40;;;;;;;14.43;46.17;100597.47;4461620;31;32806;-90
2020/12/23 01:34:16;;;;;;;63.92;58.25;;;;;;;13.37;49.07;100599.84;4472740;31;32755;-89
2020/12/23 01:36:50;;;;;;;67.35;61.35;;;;;;;14.16;47.05;100605.31;4459011;31;33709;-90
2020/12/23 01:39:18;;;;;;;69.90;63.87;;;;;;;14.15;47.13;100614.09;4458536;31;33786;-89
2020/12/23 01:41:45;;;;;;;68.82;62.42;;;;;;;13.78;47.79;100610.00;4458608;31;33898;-89
2020/12/23 01:44:13;;;;;;;67.72;62.08;;;;;;;13.79;47.83;100604.72;4458831;31;33088;-90
2020/12/23 01:46:42;;;;;;;67.90;62.17;;;;;;;14.72;45.59;100595.63;4458870;31;33244;-90
2020/12/23 01:49:09;;;;;;;67.15;61.70;;;;;;;14.56;45.83;100592.66;4471562;31;33461;-90
2020/12/23 01:51:37;;;;;;;66.18;60.80;;;;;;;14.62;45.67;100590.69;4458644;31;32875;-90
2020/12/23 01:54:05;;;;;;;68.95;63.00;;;;;;;15.11;44.48;100584.66;4458611;31;34295;-90
2020/12/23 01:56:32;;;;;;;68.40;62.13;;;;;;;14.43;45.98;100577.34;4471214;31;34009;-90
2020/12/23 01:58:59;;;;;;;63.75;58.50;;;;;;;15.24;44.16;100585.06;4471636;31;32805;-90
2020/12/23 02:01:30;;;;;;;63.67;58.30;;;;;;;15.03;44.57;100590.19;4472666;31;33662;-90
2020/12/23 02:03:58;;;;;;;65.57;59.47;;;;;;;15.09;44.59;100591.72;4472342;31;33849;-89
2020/12/23 02:06:26;;;;;;;63.63;58.25;;;;;;;15.46;43.70;100593.00;4472309;31;33354;-90
2020/12/23 02:08:54;;;;;;;64.85;59.35;;;;;;;15.61;43.18;100586.28;4472149;31;33452;-90
2020/12/23 02:11:22;;;;;;;66.62;60.88;;;;;;;15.71;42.81;100587.66;4472239;31;33138;-90
2020/12/23 02:13:50;;;;;;;64.93;59.55;;;;;;;15.58;43.20;100587.28;4459259;31;33893;-89
2020/12/23 02:16:18;;;;;;;62.95;57.83;;;;;;;15.61;43.12;100587.16;4458749;31;33987;-90
2020/12/23 02:18:46;;;;;;;62.35;57.35;;;;;;;15.93;42.28;100584.22;4485475;31;33069;-90
2020/12/23 02:21:24;;;;;;;63.28;58.08;;;;;;;15.60;42.76;100582.81;4461176;31;33103;-89
2020/12/23 02:23:52;;;;;;;62.67;57.78;;;;;;;14.72;44.93;100582.53;4472079;31;33911;-89
2020/12/23 02:26:20;;;;;;;63.13;58.22;;;;;;;14.66;45.32;100578.34;4459393;31;32892;-90
2020/12/23 02:28:47;;;;;;;62.53;57.50;;;;;;;14.73;45.39;100576.37;4471964;31;33216;-90
2020/12/23 02:31:15;;;;;;;62.38;57.42;;;;;;;15.51;43.34;100565.63;4484822;31;33029;-90
2020/12/23 02:33:42;;;;;;;63.25;58.47;;;;;;;15.50;43.37;100571.81;4459105;31;33211;-90
2020/12/23 02:36:10;;;;;;;62.28;57.40;;;;;;;15.66;43.05;100566.84;4471781;31;33066;-89
2020/12/23 02:38:38;;;;;;;62.70;57.78;;;;;;;15.77;42.94;100570.78;4472192;31;32499;-90
2020/12/23 02:41:06;;;;;;;62.28;57.42;;;;;;;15.75;43.15;100572.63;4471879;31;32760;-89
2020/12/23 02:43:34;;;;;;;62.05;57.30;;;;;;;15.77;42.99;100578.66;4471900;31;33501;-90
2020/12/23 02:46:02;;;;;;;63.08;57.92;;;;;;;15.10;44.55;100581.16;4472466;31;33424;-89
2020/12/23 02:48:29;;;;;;;63.00;58.45;;;;;;;15.47;43.58;100581.56;4459000;31;32558;-90
2020/12/23 02:51:04;;;;;;;62.25;57.13;;;;;;;14.94;44.76;100570.38;4459296;31;32976;-90
2020/12/23 02:53:31;;;;;;;62.72;57.78;;;;;;;15.05;44.53;100570.00;4458909;31;33982;-90
2020/12/23 02:56:03;;;;;;;62.13;57.47;;;;;;;15.38;44.04;100581.94;4471350;31;33173;-89
2020/12/23 02:58:31;;;;;;;62.00;57.17;;;;;;;15.31;44.09;100578.69;4466010;31;32571;-90
2020/12/23 03:00:58;;;;;;;62.30;57.45;;;;;;;14.63;45.89;100568.81;4459100;31;32644;-89
2020/12/23 03:03:26;;;;;;;60.53;56.15;;;;;;;15.01;45.08;100566.63;4471902;31;33584;-90
2020/12/23 03:05:54;;;;;;;63.78;58.87;;;;;;;14.79;45.55;100568.31;4458520;31;32809;-91
2020/12/23 03:08:21;;;;;;;64.70;59.75;;;;;;;14.90;45.49;100576.63;4471038;31;34335;-90
2020/12/23 03:10:49;;;;;;;63.85;59.03;;;;;;;15.36;44.34;100574.12;4472750;31;34122;-90
2020/12/23 03:13:17;;;;;;;66.95;61.70;;;;;;;14.53;46.59;100564.78;4478088;31;34236;-91
2020/12/23 03:15:44;;;;;;;62.38;57.47;;;;;;;14.76;46.21;100566.66;4478740;31;32665;-89
2020/12/23 03:18:12;;;;;;;62.25;57.40;;;;;;;14.97;45.30;100564.16;4461003;31;33312;-90
2020/12/23 03:20:40;;;;;;;63.30;58.33;;;;;;;14.53;46.77;100570.00;4473992;31;33356;-90
2020/12/23 03:23:07;;;;;;;61.05;56.28;;;;;;;14.45;46.84;100574.66;4474273;31;34191;-90
2020/12/23 03:25:35;;;;;;;61.75;56.92;;;;;;;13.91;48.48;100574.66;4472380;31;33447;-89
2020/12/23 03:28:03;;;;;;;62.42;57.40;;;;;;;14.31;47.53;100564.66;4471867;31;32563;-90
2020/12/23 03:30:30;;;;;;;63.87;58.87;;;;;;;13.95;48.58;100586.75;4471349;31;33562;-89
2020/12/23 03:32:58;;;;;;;63.10;58.28;;;;;;;14.52;47.13;100565.69;4471591;31;32844;-90
2020/12/23 03:35:26;;;;;;;63.50;58.13;;;;;;;14.62;46.90;100561.84;4458950;31;33019;-90
2020/12/23 03:37:54;;;;;;;61.40;56.72;;;;;;;14.81;46.54;100566.47;4458895;31;32748;-90
2020/12/23 03:40:21;;;;;;;61.25;56.67;;;;;;;15.07;45.95;100562.91;4458603;31;33703;-89
2020/12/23 03:42:49;;;;;;;62.15;57.35;;;;;;;15.34;45.21;100561.03;4471302;31;33683;-90
2020/12/23 03:45:17;;;;;;;61.20;56.70;;;;;;;15.24;45.67;100574.56;4472322;31;34936;-90
2020/12/23 03:47:45;;;;;;;64.40;59.55;;;;;;;15.63;44.55;100577.44;4484107;31;33663;-90
2020/12/23 03:50:14;;;;;;;61.95;57.28;;;;;;;14.85;46.67;100562.81;4471785;31;33062;-90
2020/12/23 03:52:42;;;;;;;61.88;57.08;;;;;;;14.64;47.28;100578.41;4472039;31;33072;-90
2020/12/23 03:55:10;;;;;;;62.22;57.38;;;;;;;14.83;46.57;100562.03;4472189;31;32954;-89
2020/12/23 03:57:40;;;;;;;62.62;57.35;;;;;;;14.77;47.05;100564.88;4469814;31;33742;-90
2020/12/23 04:00:10;;;;;;;62.25;57.28;;;;;;;14.31;48.07;100562.03;4486357;31;33725;-89
2020/12/23 04:02:39;;;;;;;61.63;56.75;;;;;;;14.89;47.09;100559.19;4472616;31;32936;-90
2020/12/23 04:05:07;;;;;;;60.63;56.03;;;;;;;15.15;46.25;100549.50;4459685;31;33658;-91
2020/12/23 04:07:36;;;;;;;63.50;58.60;;;;;;;15.01;46.44;100553.50;4459855;31;32553;-90
2020/12/23 04:10:04;;;;;;;62.70;58.00;;;;;;;15.10;46.47;100549.66;4467530;31;32885;-90
2020/12/23 04:12:36;;;;;;;63.73;58.90;;;;;;;15.01;46.92;100537.75;4472884;31;34459;-90
2020/12/23 04:15:08;;;;;;;63.45;58.50;;;;;;;14.50;48.27;100543.91;4471224;31;32755;-90
2020/12/23 04:17:38;;;;;;;65.40;60.35;;;;;;;14.14;49.51;100536.38;4472074;31;34493;-90
2020/12/23 04:20:07;;;;;;;61.80;56.95;;;;;;;13.27;52.13;100536.41;4471299;31;33207;-90
2020/12/23 04:22:35;;;;;;;64.97;59.92;;;;;;;14.39;49.00;100530.31;4458981;31;33208;-90
2020/12/23 04:25:06;;;;;;;62.75;57.78;;;;;;;14.50;48.58;100518.53;4458891;31;32914;-90
2020/12/23 04:27:34;;;;;;;61.83;56.83;;;;;;;14.96;47.43;100518.69;4472455;31;32522;-91
2020/12/23 04:30:04;;;;;;;63.15;57.97;;;;;;;14.93;47.56;100508.31;4472404;31;32770;-90
2020/12/23 04:32:33;;;;;;;63.80;58.65;;;;;;;15.62;45.85;100517.97;4459501;31;33053;-90
2020/12/23 04:35:04;;;;;;;64.68;59.80;;;;;;;15.42;46.23;100528.37;4458921;31;32745;-91
2020/12/23 04:37:34;;;;;;;62.28;57.67;;;;;;;15.47;45.89;100532.53;4472704;31;33699;-90
2020/12/23 04:40:03;;;;;;;61.37;56.67;;;;;;;15.07;46.95;100526.16;4472112;31;34211;-90
2020/12/23 04:42:33;;;;;;;66.47;61.30;;;;;;;14.24;49.02;100532.56;4484734;31;33767;-89
2020/12/23 04:45:03;;;;;;;63.78;58.60;;;;;;;14.05;50.03;100539.31;4458756;31;34017;-89
2020/12/23 04:47:31;;;;;;;63.47;58.47;;;;;;;15.18;46.96;100544.12;4458764;31;32433;-89
2020/12/23 04:49:59;;;;;;;62.62;57.67;;;;;;;15.02;47.17;100538.59;4484742;31;33446;-92
2020/12/23 04:52:33;;;;;;;63.33;58.40;;;;;;;15.57;46.04;100548.81;4458905;31;34029;-89
2020/12/23 04:55:05;;;;;;;64.50;59.47;;;;;;;16.07;44.68;100545.09;4470612;31;33634;-91
2020/12/23 04:57:35;;;;;;;63.05;57.97;;;;;;;15.78;45.51;100551.50;4466108;31;34346;-90
2020/12/23 05:00:06;;;;;;;63.80;58.70;;;;;;;16.18;44.70;100527.12;4473528;31;34475;-90
2020/12/23 05:02:35;;;;;;;63.65;58.83;;;;;;;15.94;45.36;100530.75;4459112;31;34036;-89
2020/12/23 05:05:17;;;;;;;62.42;57.62;;;;;;;16.23;44.33;100544.47;4483718;31;34353;-90
2020/12/23 05:07:48;;;;;;;63.28;58.38;;;;;;;16.28;44.53;100539.88;4464430;31;33593;-89
2020/12/23 05:10:15;;;;;;;61.37;56.67;;;;;;;16.41;44.18;100535.81;4473288;31;32790;-91
2020/12/23 05:12:46;;;;;;;61.72;57.08;;;;;;;16.44;44.00;100546.19;4461326;31;32955;-90
2020/12/23 05:15:13;;;;;;;61.85;56.97;;;;;;;16.45;44.06;100528.66;4459343;31;32881;-90
2020/12/23 05:17:45;;;;;;;62.85;57.72;;;;;;;16.76;43.25;100529.94;4471473;31;33327;-89
2020/12/23 05:20:13;;;;;;;63.05;58.10;;;;;;;15.92;45.29;100520.28;4470975;31;33789;-90
2020/12/23 05:22:46;;;;;;;64.32;59.33;;;;;;;16.25;44.89;100532.13;4458125;31;33896;-90
2020/12/23 05:25:17;;;;;;;65.87;60.35;;;;;;;16.33;44.61;100530.88;4471552;31;34442;-90
2020/12/23 05:27:49;;;;;;;63.75;58.38;;;;;;;16.28;44.88;100535.47;4471205;31;33841;-89
2020/12/23 05:30:18;;;;;;;;;;;;;;;16.57;44.22;100543.88;4471047;31;33361;-90
2020/12/23 05:32:47;;;;;;;63.00;57.90;;;;;;;16.77;43.71;100548.28;4458542;31;33203;-90
2020/12/23 05:35:15;;;;;;;61.33;56.88;;;;;;;16.97;43.08;100543.94;4459980;31;33830;-90
2020/12/23 05:37:44;;;;;;;63.47;58.45;;;;;;;16.57;44.02;100535.16;4472891;31;33671;-90
2020/12/23 05:40:12;;;;;;;64.07;58.92;;;;;;;16.19;45.13;100535.84;4459718;31;32919;-90
2020/12/23 05:42:40;;;;;;;65.05;59.70;;;;;;;16.78;43.61;100541.22;4473004;31;34571;-91
2020/12/23 05:45:09;;;;;;;65.57;60.10;;;;;;;16.95;43.27;100540.53;4459672;31;34068;-90
2020/12/23 05:47:38;;;;;;;66.60;61.08;;;;;;;16.44;44.29;100538.28;4459717;31;32517;-90
2020/12/23 05:50:10;;;;;;;66.10;60.67;;;;;;;16.28;44.81;100538.09;4459765;31;32999;-90
2020/12/23 05:52:39;;;;;;;63.87;58.65;;;;;;;16.36;44.66;100522.00;4460420;31;32941;-90
2020/12/23 05:55:15;;;;;;;64.25;59.03;;;;;;;16.18;45.19;100515.72;4473372;31;33874;-90
2020/12/23 05:57:44;;;;;;;66.12;60.53;;;;;;;16.76;43.81;100508.88;4473463;31;32469;-90
2020/12/23 06:00:12;;;;;;;64.10;59.05;;;;;;;16.39;44.76;100521.00;4472657;31;32896;-90
2020/12/23 06:03:04;;;;;;;64.85;58.97;;;;;;;15.70;46.41;100509.75;4472755;31;33627;-89
2020/12/23 06:05:32;;;;;;;65.15;59.63;;;;;;;16.12;45.47;100524.72;4459582;31;33952;-90
2020/12/23 06:08:03;;;;;;;67.35;61.88;;;;;;;16.28;45.05;100517.06;4460059;31;33376;-90
2020/12/23 06:10:34;;;;;;;67.95;62.20;;;;;;;14.95;48.34;100524.00;4472776;31;33208;-90
2020/12/23 06:13:10;;;;;;;67.20;61.92;;;;;;;13.55;52.67;100516.41;4472524;31;32697;-90
2020/12/23 06:15:40;;;;;;;68.62;62.75;;;;;;;14.85;49.03;100524.34;4472006;31;34103;-89
2020/12/23 06:18:17;;;;;;;67.78;62.28;;;;;;;15.37;47.53;100512.81;4472457;31;33297;-90
2020/12/23 06:20:45;;;;;;;68.07;62.22;;;;;;;15.16;48.00;100522.34;4459016;31;33038;-90
2020/12/23 06:23:24;;;;;;;66.70;61.15;;;;;;;15.91;45.90;100518.56;4472102;31;32950;-89
2020/12/23 06:25:52;;;;;;;67.57;62.08;;;;;;;15.64;46.30;100525.78;4458970;31;33935;-90
2020/12/23 06:28:23;;;;;;;68.18;62.45;;;;;;;15.81;46.06;100527.78;4471825;31;34208;-85
2020/12/23 06:30:51;;;;;;;70.82;65.05;;;;;;;15.36;46.72;100540.81;4461229;31;32889;-85
2020/12/23 06:33:20;;;;;;;69.22;63.33;;;;;;;15.42;47.11;100541.50;4461419;31;32895;-87
2020/12/23 06:35:47;;;;;;;69.90;64.05;;;;;;;16.09;45.45;100526.62;4461118;31;32862;-85
2020/12/23 06:38:22;;;;;;;73.72;67.57;;;;;;;16.25;45.12;100527.72;4471270;31;34346;-86
2020/12/23 06:40:59;;;;;;;70.28;64.25;;;;;;;16.34;44.78;100519.44;4484550;31;34695;-85
2020/12/23 06:43:55;;;;;;;69.53;63.75;;;;;;;15.95;45.74;100503.53;4461547;31;34086;-84
2020/12/23 06:46:24;;;;;;;69.30;63.55;;;;;;;16.23;44.82;100512.91;4461085;31;33913;-85
2020/12/23 06:49:14;;;;;;;68.60;62.60;;;;;;;16.58;44.19;100513.16;4460350;31;32171;-86
2020/12/23 06:51:42;;;;;;;66.80;60.95;;;;;;;16.34;44.43;100518.56;4473663;31;33755;-86
2020/12/23 06:54:09;;;;;;;69.37;63.55;;;;;;;16.15;44.94;100510.59;4461473;31;33095;-85
2020/12/23 06:56:44;;;;;;;66.72;60.90;;;;;;;16.81;43.43;100512.16;4462281;31;33003;-86
2020/12/23 06:59:45;;;;;;;69.85;63.80;;;;;;;16.97;43.31;100526.38;4475785;31;33299;-86
2020/12/23 07:02:13;;;;;;;65.12;59.65;;;;;;;16.90;43.58;100530.22;4463008;31;34299;-87
2020/12/23 07:04:48;;;;;;;66.87;61.25;;;;;;;16.28;44.40;100535.47;4477434;31;33498;-86
2020/12/23 07:07:41;;;;;;;67.18;61.63;;;;;;;15.14;48.30;100532.91;4462362;31;33501;-86
2020/12/23 07:10:20;;;;;;;65.22;59.78;;;;;;;15.39;47.79;100541.63;4461593;31;33753;-86
2020/12/23 07:12:52;;;;;;;66.43;61.13;;;;;;;16.03;46.05;100517.22;4487967;31;33345;-86
2020/12/23 07:15:30;;;;;;;66.78;61.47;;;;;;;15.53;47.40;100513.91;4474512;31;33659;-84
2020/12/23 07:17:57;;;;;;;64.93;59.80;;;;;;;16.30;45.66;100509.09;4487594;31;34044;-86
2020/12/23 07:20:28;;;;;;;63.87;58.75;;;;;;;16.31;45.39;100503.78;4487771;31;33433;-86
2020/12/23 07:23:00;;;;;;;64.75;59.35;;;;;;;16.78;44.50;100501.75;4485034;31;33581;-86
2020/12/23 07:25:28;;;;;;;65.15;60.08;;;;;;;16.56;44.99;100505.34;4486566;31;34343;-86
2020/12/23 07:27:57;;;;;;;64.93;59.78;;;;;;;16.72;44.35;100509.94;4486990;31;33737;-86
2020/12/23 07:30:26;;;;;;;64.57;59.17;;;;;;;16.12;45.87;100521.25;4471885;31;32224;-86
2020/12/23 07:33:17;;;;;;;68.65;63.03;;;;;;;16.84;44.41;100509.38;4474063;31;34716;-88
2020/12/23 07:35:46;;;;;;;67.18;61.90;;;;;;;16.98;43.64;100504.41;4455311;31;266357;-89
2020/12/23 07:38:15;;;;;;;63.33;58.33;;;;;;;16.19;45.47;100510.44;4474239;31;32695;-88
2020/12/23 07:40:42;;;;;;;66.62;61.28;;;;;;;15.78;46.80;100512.06;4473306;31;32905;-89
2020/12/23 07:43:12;;;;;;;63.42;58.13;;;;;;;15.77;47.11;100510.34;4485397;31;33043;-90
2020/12/23 07:45:41;;;;;;;63.45;58.25;;;;;;;16.40;45.60;100510.41;4485424;31;33901;-89
2020/12/23 07:48:15;;;;;;;65.43;59.97;;;;;;;15.89;47.23;100509.03;4461042;31;32414;-91
2020/12/23 07:50:50;;;;;;;67.75;61.75;;;;;;;15.65;47.60;100509.94;4473825;31;32761;-91
2020/12/23 07:53:30;;;;;;;64.57;59.13;;;;;;;15.81;47.45;100517.25;4459571;31;32727;-89
2020/12/23 07:56:00;;;;;;;66.07;60.67;;;;;;;16.62;45.28;100498.94;4471032;31;33005;-90
2020/12/23 07:58:29;;;;;;;68.25;62.85;;;;;;;16.71;45.31;100503.81;4465510;31;33593;-89
2020/12/23 08:00:58;;;;;;;63.65;58.10;;;;;;;16.78;44.82;100488.59;4472356;31;34383;-90
2020/12/23 08:03:30;;;;;;;63.67;58.13;;;;;;;16.28;46.18;100497.81;4465910;31;33518;-89
2020/12/23 08:06:07;;;;;;;62.95;58.13;;;;;;;16.50;45.28;100497.75;4459118;31;33281;-90
2020/12/23 08:08:37;;;;;;;63.25;58.17;;;;;;;16.85;44.45;100500.56;4472115;31;32812;-89
2020/12/23 08:11:15;;;;;;;65.50;60.12;;;;;;;17.16;43.71;100494.81;4484825;31;33910;-90
2020/12/23 08:13:43;;;;;;;62.42;57.30;;;;;;;17.08;43.89;100496.06;4471801;31;33312;-90
2020/12/23 08:16:15;;;;;;;63.22;58.30;;;;;;;17.56;42.84;100515.75;4458905;31;34040;-90
2020/12/23 08:18:44;;;;;;;64.25;58.92;;;;;;;17.29;43.17;100505.59;4471769;31;33426;-90
2020/12/23 08:21:18;;;;;;;68.12;62.42;;;;;;;17.80;42.15;100503.19;4458149;31;33382;-90
2020/12/23 08:23:47;;;;;;;64.90;59.97;;;;;;;17.57;42.51;100498.19;4459211;31;32952;-90
2020/12/23 08:26:15;;;;;;;63.28;58.22;;;;;;;18.02;41.74;100503.00;4471899;31;32808;-90
2020/12/23 08:28:47;;;;;;;63.75;58.65;;;;;;;17.72;42.12;100504.50;4465498;32;34076;-89
2020/12/23 08:31:23;;;;;;;63.75;58.58;;;;;;;18.02;41.63;100505.63;4483344;31;33361;-91
2020/12/23 08:33:52;;;;;;;63.92;59.00;;;;;;;17.82;42.33;100509.22;4458804;31;32902;-91
2020/12/23 08:36:22;;;;;;;63.20;58.22;;;;;;;18.13;41.39;100509.53;4483986;31;32610;-91
2020/12/23 08:38:52;;;;;;;67.75;62.40;;;;;;;17.54;42.71;100504.44;4471528;31;33558;-89
2020/12/23 08:41:21;;;;;;;64.95;60.03;;;;;;;17.16;43.76;100501.84;4471207;31;33319;-89
2020/12/23 08:43:50;;;;;;;62.92;57.97;;;;;;;17.73;42.38;100504.41;4458953;31;33015;-88
2020/12/23 08:46:26;;;;;;;67.20;61.60;;;;;;;17.33;43.58;100511.59;4484731;31;33742;-88
2020/12/23 08:48:55;;;;;;;64.95;59.67;;;;;;;17.24;43.81;100504.97;4471606;31;34314;-89
2020/12/23 08:51:25;;;;;;;65.50;60.20;;;;;;;17.91;42.64;100510.56;4447831;31;32242;-89
2020/12/23 08:53:54;;;;;;;63.65;58.45;;;;;;;17.40;43.37;100507.72;4457622;32;33027;-90
2020/12/23 08:56:28;;;;;;;65.43;60.10;;;;;;;16.95;44.41;100507.19;4458188;32;33642;-88
2020/12/23 08:59:01;;;;;;;66.55;61.28;;;;;;;17.25;43.93;100504.03;4461350;32;32758;-90
2020/12/23 09:01:31;;;;;;;62.85;58.08;;;;;;;17.43;43.50;100504.09;4468071;32;34071;-89
2020/12/23 09:04:07;;;;;;;67.35;62.55;;;;;;;17.28;43.83;100500.41;4460822;32;34126;-90
2020/12/23 09:06:37;;;;;;;63.30;58.72;;;;;;;17.14;44.10;100501.91;4466617;31;33961;-90
2020/12/23 09:09:06;;;;;;;63.13;57.97;;;;;;;16.89;44.73;100494.25;4485335;31;32796;-89
2020/12/23 09:11:38;;;;;;;65.75;60.83;;;;;;;16.98;44.71;100496.50;4486281;31;33379;-89
2020/12/23 09:14:15;;;;;;;65.37;60.28;;;;;;;17.43;43.72;100489.16;4473255;31;33241;-90
2020/12/23 09:17:06;;;;;;;63.58;58.78;;;;;;;16.99;44.49;100495.59;4486053;31;33014;-87
2020/12/23 09:19:47;;;;;;;65.22;60.08;;;;;;;16.84;45.12;100481.28;4489680;31;33041;-88
2020/12/23 09:22:28;;;;;;;66.17;60.83;;;;;;;17.01;44.76;100480.56;4486264;31;32462;-89
2020/12/23 09:25:13;;;;;;;65.20;59.83;;;;;;;17.61;43.30;100466.34;4485973;31;34916;-88
2020/12/23 09:27:42;;;;;;;66.22;61.03;;;;;;;17.82;43.22;100460.94;4485749;31;32879;-89
2020/12/23 09:30:10;;;;;;;64.30;59.03;;;;;;;17.21;44.44;100462.12;4485841;31;32838;-87
2020/12/23 09:32:50;;;;;;;65.90;60.83;;;;;;;16.89;45.94;100451.28;4485763;31;33562;-88
2020/12/23 09:35:24;;;;;;;65.28;60.45;;;;;;;17.24;44.93;100454.94;4485676;31;32732;-86
2020/12/23 09:38:02;;;;;;;64.72;59.65;;;;;;;17.19;44.78;100451.66;4485650;31;34104;-88
2020/12/23 09:40:30;;;;;;;63.30;58.38;;;;;;;16.97;44.97;100444.78;4486012;31;34380;-89
2020/12/23 09:42:58;;;;;;;63.67;58.63;;;;;;;17.35;44.37;100439.47;4486346;31;34317;-89
2020/12/23 09:45:26;;;;;;;65.53;60.33;;;;;;;17.77;43.35;100431.34;4472886;31;32877;-90
2020/12/23 09:48:04;;;;;;;64.57;59.40;;;;;;;17.95;43.24;100440.97;4487388;31;33969;-89
2020/12/23 09:50:34;;;;;;;65.68;60.20;;;;;;;18.00;42.59;100422.28;4486381;31;33923;-87
2020/12/23 09:53:02;;;;;;;64.70;59.50;;;;;;;17.45;44.40;100410.91;4485812;31;32817;-90
2020/12/23 09:55:29;;;;;;;64.78;59.67;;;;;;;18.00;43.05;100427.56;4481674;32;32551;-91
2020/12/23 09:57:57;;;;;;;65.47;59.80;;;;;;;17.60;44.01;100405.81;4467136;31;32888;-91
2020/12/23 10:00:27;;;;;;;62.83;57.95;;;;;;;18.15;42.89;100420.66;4455945;31;33189;-90
2020/12/23 10:02:55;;;;;;;63.38;58.38;;;;;;;18.32;42.41;100406.56;4487801;31;33487;-90
2020/12/23 10:05:23;;;;;;;62.75;57.92;;;;;;;18.36;42.01;100401.06;4486369;31;33882;-91
2020/12/23 10:07:51;;;;;;;62.70;57.95;;;;;;;17.85;42.81;100406.28;4473246;31;32678;-91
2020/12/23 10:10:18;;;;;;;63.80;58.70;;;;;;;17.49;44.14;100399.28;4486036;31;33014;-90
2020/12/23 10:12:46;;;;;;;63.83;58.85;;;;;;;18.13;43.58;100399.63;4473325;31;33678;-90
2020/12/23 10:15:15;;;;;;;63.53;58.72;;;;;;;18.06;43.60;100386.84;4473271;31;33059;-91
2020/12/23 10:17:43;;;;;;;63.85;58.90;;;;;;;17.25;44.97;100393.44;4485954;31;33924;-91
2020/12/23 10:20:11;;;;;;;62.53;57.70;;;;;;;17.63;44.15;100403.88;4485678;31;34113;-91
2020/12/23 10:22:39;;;;;;;64.22;59.22;;;;;;;17.36;44.59;100390.28;4498412;31;32047;-91
2020/12/23 10:25:08;;;;;;;63.60;58.60;;;;;;;17.81;43.82;100388.06;4485989;31;33845;-92
2020/12/23 10:27:36;;;;;;;64.95;59.88;;;;;;;17.69;44.21;100369.31;4472964;31;33273;-90
2020/12/23 10:30:06;;;;;;;63.33;58.35;;;;;;;17.98;43.49;100374.06;4486252;31;33197;-90
2020/12/23 10:32:35;;;;;;;64.85;59.75;;;;;;;17.91;43.50;100372.63;4486233;31;33634;-91
2020/12/23 10:35:03;;;;;;;62.30;57.70;;;;;;;17.96;43.74;100363.59;4498923;31;33667;-92
2020/12/23 10:37:31;;;;;;;61.83;57.25;;;;;;;18.27;42.73;100351.44;4473461;31;32944;-91
2020/12/23 10:39:59;;;;;;;62.22;57.50;;;;;;;18.01;42.96;100344.91;4486143;31;34299;-90
2020/12/23 10:42:29;;;;;;;61.33;56.88;;;;;;;18.28;42.53;100357.56;4473271;31;32432;-91
2020/12/23 10:44:59;;;;;;;61.50;56.85;;;;;;;18.41;42.69;100357.75;4502996;31;34755;-91
2020/12/23 10:47:32;;;;;;;61.63;56.95;;;;;;;17.97;43.52;100354.75;4496624;31;33341;-90
2020/12/23 10:50:00;;;;;;;62.92;58.03;;;;;;;18.23;42.79;100342.00;4492440;31;33295;-90
2020/12/23 10:52:27;;;;;;;60.92;56.42;;;;;;;17.87;43.68;100338.53;4492797;31;33440;-91
2020/12/23 10:54:56;;;;;;;63.38;58.42;;;;;;;18.23;43.58;100338.47;4493772;31;33980;-91
2020/12/23 10:57:23;;;;;;;62.22;57.47;;;;;;;17.80;44.65;100338.91;4478790;31;33767;-91
2020/12/23 10:59:51;;;;;;;62.22;57.53;;;;;;;18.10;43.50;100346.22;4492001;31;32532;-90
2020/12/23 11:02:19;;;;;;;60.85;55.95;;;;;;;18.69;43.01;100347.41;4480667;31;32738;-89
2020/12/23 11:04:46;;;;;;;61.05;56.55;;;;;;;18.71;42.51;100344.69;4488297;31;32715;-89
2020/12/23 11:07:14;;;;;;;61.50;56.60;;;;;;;19.33;40.33;100335.94;4479053;31;34018;-89
2020/12/23 11:09:44;;;;;;;61.15;56.75;;;;;;;19.81;39.41;100335.81;4476836;31;32637;-89
2020/12/23 11:12:11;;;;;;;63.90;59.10;;;;;;;19.01;41.19;100314.87;4487678;31;33570;-86
2020/12/23 11:14:39;;;;;;;65.90;61.15;;;;;;;19.36;40.68;100325.22;4473266;31;32682;-88
2020/12/23 11:17:07;;;;;;;62.20;57.25;;;;;;;20.27;39.61;100316.28;4487028;31;33853;-90
2020/12/23 11:19:35;;;;;;;61.58;56.88;;;;;;;20.55;38.00;100296.84;4498150;31;35117;-88
2020/12/23 11:22:03;;;;;;;62.67;57.75;;;;;;;19.96;39.01;100287.28;4485583;31;32383;-91